createdAt,value
2018-08-20T00:00:45.550Z,7.53
2018-08-20T00:03:14.854Z,7.37
2018-08-20T00:05:47.519Z,7.30
2018-08-20T00:08:15.925Z,6.30
2018-08-20T00:10:44.240Z,6.10
2018-08-20T00:13:12.605Z,5.43
2018-08-20T00:15:40.900Z,6.07
2018-08-20T00:18:10.298Z,5.40
2018-08-20T00:20:38.643Z,5.80
2018-08-20T00:23:06.957Z,4.77
2018-08-20T00:25:35.326Z,4.97
2018-08-20T00:28:03.715Z,5.07
2018-08-20T00:30:32.008Z,4.60
2018-08-20T00:33:00.334Z,4.87
2018-08-20T00:35:28.638Z,4.87
2018-08-20T00:37:56.994Z,4.50
2018-08-20T00:40:25.351Z,4.37
2018-08-20T00:42:53.739Z,4.43
2018-08-20T00:45:22.077Z,4.97
2018-08-20T00:47:50.471Z,4.90
2018-08-20T00:50:18.879Z,5.00
2018-08-20T00:52:47.208Z,4.87
2018-08-20T00:55:15.651Z,5.33
2018-08-20T00:57:43.987Z,5.37
2018-08-20T01:00:12.436Z,5.40
2018-08-20T01:02:40.953Z,5.67
2018-08-20T01:05:09.357Z,5.30
2018-08-20T01:07:37.739Z,5.23
2018-08-20T01:10:07.315Z,5.30
2018-08-20T01:12:35.968Z,5.50
2018-08-20T01:15:04.351Z,5.27
2018-08-20T01:17:32.698Z,5.60
2018-08-20T01:20:01.105Z,5.67
2018-08-20T01:22:29.485Z,5.57
2018-08-20T01:24:57.883Z,5.57
2018-08-20T01:27:28.240Z,5.67
2018-08-20T01:29:56.599Z,5.53
2018-08-20T01:32:25.005Z,6.00
2018-08-20T01:34:53.364Z,6.03
2018-08-20T01:37:22.390Z,5.60
2018-08-20T01:39:50.973Z,6.33
2018-08-20T01:42:20.389Z,6.07
2018-08-20T01:44:48.725Z,6.03
2018-08-20T01:47:17.035Z,5.50
2018-08-20T01:49:45.408Z,5.63
2018-08-20T01:52:13.714Z,5.80
2018-08-20T01:54:49.176Z,5.60
2018-08-20T01:57:17.647Z,5.87
2018-08-20T01:59:46.280Z,6.07
2018-08-20T02:02:14.656Z,5.87
2018-08-20T02:04:43.011Z,5.80
2018-08-20T02:07:11.401Z,5.93
2018-08-20T02:09:39.771Z,5.90
2018-08-20T02:12:08.131Z,5.97
2018-08-20T02:14:36.458Z,5.77
2018-08-20T02:17:05.209Z,5.93
2018-08-20T02:19:33.536Z,6.10
2018-08-20T02:22:01.915Z,5.60
2018-08-20T02:24:30.233Z,6.30
2018-08-20T02:26:58.578Z,6.23
2018-08-20T02:29:26.955Z,6.00
2018-08-20T02:31:55.271Z,5.93
2018-08-20T02:34:23.720Z,6.60
2018-08-20T02:36:52.075Z,5.90
2018-08-20T02:39:20.397Z,6.03
2018-08-20T02:41:48.774Z,6.27
2018-08-20T02:44:17.156Z,6.30
2018-08-20T02:46:50.151Z,6.47
2018-08-20T02:49:18.665Z,6.50
2018-08-20T02:51:47.634Z,6.47
2018-08-20T02:54:15.732Z,6.60
2018-08-20T02:56:44.095Z,6.63
2018-08-20T02:59:13.266Z,6.73
2018-08-20T03:01:41.616Z,6.60
2018-08-20T03:04:10.029Z,6.27
2018-08-20T03:06:38.956Z,6.67
2018-08-20T03:09:12.036Z,6.70
2018-08-20T03:11:40.434Z,6.63
2018-08-20T03:14:08.868Z,6.97
2018-08-20T03:16:37.807Z,6.43
2018-08-20T03:19:06.600Z,6.83
2018-08-20T03:21:35.003Z,7.53
2018-08-20T03:24:03.378Z,6.67
2018-08-20T03:26:31.681Z,7.60
2018-08-20T03:29:00.679Z,7.17
2018-08-20T03:31:29.154Z,7.13
2018-08-20T03:33:57.455Z,7.40
2018-08-20T03:36:26.013Z,7.67
2018-08-20T03:38:54.923Z,7.83
2018-08-20T03:41:23.292Z,7.30
2018-08-20T03:43:52.072Z,8.10
2018-08-20T03:46:20.494Z,7.63
2018-08-20T03:48:48.832Z,7.70
2018-08-20T03:51:17.171Z,7.80
2018-08-20T03:53:45.523Z,7.90
2018-08-20T03:56:14.604Z,7.70
2018-08-20T03:58:43.007Z,7.80
2018-08-20T04:01:11.417Z,7.20
2018-08-20T04:03:39.980Z,7.93
2018-08-20T04:06:08.308Z,7.40
2018-08-20T04:08:36.698Z,7.50
2018-08-20T04:11:05.318Z,7.67
2018-08-20T04:13:33.666Z,7.40
2018-08-20T04:16:02.069Z,8.00
2018-08-20T04:18:31.105Z,8.17
2018-08-20T04:20:59.504Z,8.20
2018-08-20T04:23:27.899Z,8.73
2018-08-20T04:25:56.246Z,7.90
2018-08-20T04:28:24.634Z,8.57
2018-08-20T04:30:53.019Z,8.33
2018-08-20T04:33:21.381Z,7.97
2018-08-20T04:35:49.793Z,8.43
2018-08-20T04:38:18.127Z,8.30
2018-08-20T04:40:46.495Z,7.87
2018-08-20T04:43:14.893Z,9.03
2018-08-20T04:45:43.387Z,8.83
2018-08-20T04:48:11.734Z,8.73
2018-08-20T04:50:40.155Z,8.33
2018-08-20T04:53:08.433Z,8.43
2018-08-20T04:55:36.859Z,7.70
2018-08-20T04:58:05.213Z,8.07
2018-08-20T05:00:33.549Z,8.50
2018-08-20T05:03:01.862Z,8.10
2018-08-20T05:05:30.260Z,8.93
2018-08-20T05:07:58.740Z,8.70
2018-08-20T05:10:27.110Z,8.90
2018-08-20T05:12:56.059Z,9.23
2018-08-20T05:15:24.474Z,8.87
2018-08-20T05:17:52.840Z,8.07
2018-08-20T05:20:21.231Z,8.07
2018-08-20T05:22:49.590Z,8.40
2018-08-20T05:25:17.898Z,8.90
2018-08-20T05:27:46.243Z,9.20
2018-08-20T05:30:14.617Z,9.33
2018-08-20T05:32:43.460Z,9.87
2018-08-20T05:35:18.551Z,11.50
2018-08-20T05:37:46.862Z,8.73
2018-08-20T05:40:15.327Z,9.10
2018-08-20T05:42:43.715Z,9.97
2018-08-20T05:45:12.761Z,9.17
2018-08-20T05:47:41.083Z,11.03
2018-08-20T05:50:09.771Z,8.43
2018-08-20T05:52:38.401Z,8.53
2018-08-20T05:55:07.466Z,8.83
2018-08-20T05:57:35.926Z,9.60
2018-08-20T06:00:08.142Z,9.97
2018-08-20T06:02:37.323Z,11.00
2018-08-20T06:05:05.987Z,8.77
2018-08-20T06:07:34.449Z,8.20
2018-08-20T06:10:02.848Z,9.33
2018-08-20T06:12:31.247Z,9.23
2018-08-20T06:14:59.610Z,9.37
2018-08-20T06:17:28.020Z,8.60
2018-08-20T06:19:56.395Z,9.23
2018-08-20T06:22:24.720Z,9.53
2018-08-20T06:24:53.255Z,8.93
2018-08-20T06:27:21.611Z,8.50
2018-08-20T06:29:50.026Z,9.17
2018-08-20T06:32:18.364Z,10.23
2018-08-20T06:34:46.715Z,9.17
2018-08-20T06:37:15.448Z,8.70
2018-08-20T06:39:43.886Z,8.80
2018-08-20T06:42:12.281Z,8.63
2018-08-20T06:44:40.746Z,8.53
2018-08-20T06:47:09.090Z,8.40
2018-08-20T06:49:37.531Z,8.57
2018-08-20T06:52:06.007Z,8.33
2018-08-20T06:54:34.463Z,8.90
2018-08-20T06:57:03.526Z,8.07
2018-08-20T06:59:32.101Z,8.87
2018-08-20T07:02:00.532Z,8.37
2018-08-20T07:04:29.031Z,9.03
2018-08-20T07:06:57.439Z,8.03
2018-08-20T07:09:25.730Z,8.97
2018-08-20T07:11:54.228Z,8.30
2018-08-20T07:14:22.465Z,8.20
2018-08-20T07:16:50.827Z,8.30
2018-08-20T07:19:19.180Z,8.40
2018-08-20T07:21:47.580Z,8.97
2018-08-20T07:24:16.558Z,8.20
2018-08-20T07:26:44.929Z,8.50
2018-08-20T07:29:14.389Z,9.07
2018-08-20T07:31:42.739Z,8.50
2018-08-20T07:34:11.071Z,9.40
2018-08-20T07:36:39.444Z,8.80
2018-08-20T07:39:07.897Z,9.07
2018-08-20T07:41:36.221Z,7.70
2018-08-20T07:44:04.829Z,7.70
2018-08-20T07:46:33.159Z,8.23
2018-08-20T07:49:05.722Z,7.37
2018-08-20T07:51:34.040Z,7.40
2018-08-20T07:54:02.621Z,7.10
2018-08-20T07:56:31.201Z,6.40
2018-08-20T07:58:59.557Z,6.37
2018-08-20T08:01:28.582Z,5.87
2018-08-20T08:03:56.992Z,6.03
2018-08-20T08:06:25.424Z,5.80
2018-08-20T08:08:53.807Z,5.20
2018-08-20T08:11:22.141Z,5.53
2018-08-20T08:13:50.533Z,6.00
2018-08-20T08:16:18.986Z,5.80
2018-08-20T08:18:47.302Z,5.80
2018-08-20T08:21:15.667Z,5.40
2018-08-20T08:23:44.628Z,5.00
2018-08-20T08:26:13.019Z,5.00
2018-08-20T08:28:42.064Z,5.13
2018-08-20T08:31:10.419Z,5.10
2018-08-20T08:33:38.740Z,4.77
2018-08-20T08:36:07.124Z,5.43
2018-08-20T08:38:35.484Z,5.67
2018-08-20T08:41:03.849Z,5.67
2018-08-20T08:43:32.260Z,6.00
2018-08-20T08:46:00.668Z,5.17
2018-08-20T08:48:29.018Z,5.90
2018-08-20T08:50:57.451Z,5.63
2018-08-20T08:53:25.842Z,5.00
2018-08-20T08:55:54.283Z,5.53
2018-08-20T08:58:22.659Z,6.00
2018-08-20T09:00:51.089Z,6.10
2018-08-20T09:03:19.438Z,5.87
2018-08-20T09:05:47.872Z,5.27
2018-08-20T09:08:16.186Z,5.37
2018-08-20T09:10:45.409Z,5.43
2018-08-20T09:13:13.786Z,4.93
2018-08-20T09:15:42.110Z,5.30
2018-08-20T09:18:10.407Z,5.43
2018-08-20T09:20:38.782Z,6.47
2018-08-20T09:23:07.183Z,6.83
2018-08-20T09:25:35.595Z,6.60
2018-08-20T09:28:05.177Z,5.63
2018-08-20T09:30:33.608Z,6.33
2018-08-20T09:33:01.954Z,4.90
2018-08-20T09:35:30.853Z,5.57
2018-08-20T09:37:59.230Z,5.17
2018-08-20T09:40:27.795Z,5.70
2018-08-20T09:42:56.201Z,6.00
2018-08-20T09:45:24.628Z,5.27
2018-08-20T09:47:52.967Z,4.80
2018-08-20T09:50:21.341Z,4.90
2018-08-20T09:52:49.856Z,4.93
2018-08-20T09:55:18.238Z,5.20
2018-08-20T09:57:46.965Z,5.97
2018-08-20T10:00:47.824Z,5.03
2018-08-20T10:03:16.272Z,5.33
2018-08-20T10:05:44.605Z,5.30
2018-08-20T10:08:12.967Z,4.50
2018-08-20T10:10:41.330Z,4.20
2018-08-20T10:13:09.718Z,5.00
2018-08-20T10:15:38.043Z,4.53
2018-08-20T10:18:06.842Z,4.47
2018-08-20T10:20:35.196Z,4.33
2018-08-20T10:23:03.781Z,4.80
2018-08-20T10:25:33.009Z,4.10
2018-08-20T10:28:03.253Z,4.77
2018-08-20T10:30:31.706Z,3.80
2018-08-20T10:33:01.056Z,4.23
2018-08-20T10:35:29.597Z,4.20
2018-08-20T10:37:58.123Z,4.30
2018-08-20T10:40:26.649Z,4.37
2018-08-20T10:42:55.197Z,4.90
2018-08-20T10:45:29.325Z,4.63
2018-08-20T10:47:57.684Z,6.20
2018-08-20T10:50:26.079Z,5.47
2018-08-20T10:52:57.202Z,5.50
2018-08-20T10:55:28.723Z,7.77
2018-08-20T10:57:57.184Z,4.50
2018-08-20T11:00:25.573Z,5.00
2018-08-20T11:02:53.947Z,4.47
2018-08-20T11:05:22.292Z,4.40
2018-08-20T11:07:50.598Z,3.53
2018-08-20T11:10:19.077Z,4.23
2018-08-20T11:12:47.607Z,3.80
2018-08-20T11:15:15.962Z,4.70
2018-08-20T11:17:44.379Z,4.00
2018-08-20T11:20:14.479Z,3.87
2018-08-20T11:22:43.209Z,3.43
2018-08-20T11:25:12.222Z,3.47
2018-08-20T11:27:41.027Z,4.00
2018-08-20T11:30:10.722Z,3.80
2018-08-20T11:32:39.588Z,3.40
2018-08-20T11:35:08.384Z,3.63
2018-08-20T11:37:36.937Z,4.03
2018-08-20T11:40:05.746Z,3.73
2018-08-20T11:42:34.120Z,3.80
2018-08-20T11:45:02.690Z,4.00
2018-08-20T11:47:31.025Z,3.60
2018-08-20T11:49:59.507Z,4.20
2018-08-20T11:52:28.029Z,4.00
2018-08-20T11:54:56.382Z,3.43
2018-08-20T11:57:24.796Z,3.67
2018-08-20T11:59:53.097Z,3.60
2018-08-20T12:02:21.538Z,3.53
2018-08-20T12:04:49.945Z,3.10
2018-08-20T12:07:18.349Z,3.47
2018-08-20T12:09:47.249Z,3.07
2018-08-20T12:12:15.699Z,2.83
2018-08-20T12:14:44.129Z,2.60
2018-08-20T12:17:12.898Z,3.03
2018-08-20T12:19:41.214Z,3.20
2018-08-20T12:22:09.568Z,3.17
2018-08-20T12:24:38.131Z,3.17
2018-08-20T12:27:06.625Z,3.20
2018-08-20T12:29:34.963Z,3.07
2018-08-20T12:32:03.368Z,2.73
2018-08-20T12:34:31.805Z,2.97
2018-08-20T12:37:00.406Z,3.20
2018-08-20T12:39:28.926Z,2.83
2018-08-20T12:41:57.346Z,2.60
2018-08-20T12:44:25.979Z,3.07
2018-08-20T12:46:54.644Z,3.47
2018-08-20T12:49:23.272Z,3.20
2018-08-20T12:51:51.639Z,3.37
2018-08-20T12:54:19.976Z,3.10
2018-08-20T12:56:48.301Z,3.53
2018-08-20T12:59:16.672Z,2.67
2018-08-20T13:01:45.165Z,2.70
2018-08-20T13:04:13.595Z,2.50
2018-08-20T13:06:41.940Z,2.67
2018-08-20T13:09:10.217Z,2.90
2018-08-20T13:11:38.610Z,2.90
2018-08-20T13:14:06.988Z,2.50
2018-08-20T13:16:35.373Z,2.50
2018-08-20T13:19:03.760Z,3.40
2018-08-20T13:21:32.174Z,2.80
2018-08-20T13:24:00.506Z,2.40
2018-08-20T13:26:29.291Z,2.87
2018-08-20T13:28:57.592Z,2.50
2018-08-20T13:31:26.005Z,2.90
2018-08-20T13:33:54.440Z,2.00
2018-08-20T13:36:22.928Z,2.77
2018-08-20T13:38:51.459Z,2.40
2018-08-20T13:41:19.827Z,2.80
2018-08-20T13:43:48.314Z,2.93
2018-08-20T13:46:16.736Z,2.77
2018-08-20T13:48:45.901Z,2.70
2018-08-20T13:51:14.292Z,2.53
2018-08-20T13:53:42.640Z,4.37
2018-08-20T13:56:11.099Z,3.00
2018-08-20T13:58:39.667Z,2.60
2018-08-20T14:01:08.179Z,4.50
2018-08-20T14:03:36.515Z,2.93
2018-08-20T14:06:04.924Z,2.67
2018-08-20T14:08:33.305Z,5.93
2018-08-20T14:11:02.632Z,2.90
2018-08-20T14:13:31.086Z,2.30
2018-08-20T14:16:00.056Z,3.27
2018-08-20T14:18:29.010Z,3.37
2018-08-20T14:21:03.165Z,2.97
2018-08-20T14:23:31.737Z,2.33
2018-08-20T14:26:01.349Z,2.30
2018-08-20T14:28:30.417Z,2.00
2018-08-20T14:30:58.826Z,2.30
2018-08-20T14:33:27.189Z,2.30
2018-08-20T14:35:55.518Z,2.10
2018-08-20T14:38:25.080Z,2.03
2018-08-20T14:40:53.415Z,1.90
2018-08-20T14:43:21.898Z,1.90
2018-08-20T14:45:55.632Z,1.93
2018-08-20T14:48:24.162Z,3.00
2018-08-20T14:50:52.683Z,2.60
2018-08-20T14:53:21.107Z,2.10
2018-08-20T14:55:49.397Z,2.93
2018-08-20T14:58:17.779Z,2.40
2018-08-20T15:00:46.308Z,2.10
2018-08-20T15:03:14.809Z,2.50
2018-08-20T15:05:43.289Z,2.20
2018-08-20T15:08:12.026Z,2.20
2018-08-20T15:10:40.386Z,2.63
2018-08-20T15:13:08.769Z,2.20
2018-08-20T15:15:37.336Z,2.00
2018-08-20T15:18:05.759Z,2.70
2018-08-20T15:20:34.132Z,2.43
2018-08-20T15:23:02.701Z,2.50
2018-08-20T15:25:32.053Z,2.47
2018-08-20T15:28:00.375Z,2.40
2018-08-20T15:30:28.686Z,2.70
2018-08-20T15:32:57.769Z,2.20
2018-08-20T15:35:26.165Z,2.37
2018-08-20T15:37:54.477Z,2.60
2018-08-20T15:40:22.950Z,2.77
2018-08-20T15:42:51.467Z,2.10
2018-08-20T15:45:20.672Z,2.00
2018-08-20T15:47:49.019Z,2.17
2018-08-20T15:50:18.248Z,2.00
2018-08-20T15:52:46.667Z,2.20
2018-08-20T15:55:15.014Z,2.00
2018-08-20T15:57:43.359Z,2.50
2018-08-20T16:00:13.989Z,2.60
2018-08-20T16:02:42.908Z,2.60
2018-08-20T16:05:11.240Z,2.30
2018-08-20T16:07:39.560Z,2.50
2018-08-20T16:10:09.152Z,2.00
2018-08-20T16:12:37.600Z,2.33
2018-08-20T16:15:06.537Z,2.67
2018-08-20T16:17:34.903Z,2.50
2018-08-20T16:20:03.416Z,3.57
2018-08-20T16:22:31.760Z,2.30
2018-08-20T16:25:00.086Z,2.20
2018-08-20T16:27:28.431Z,2.10
2018-08-20T16:29:57.061Z,2.40
2018-08-20T16:32:25.525Z,2.20
2018-08-20T16:34:54.427Z,2.73
2018-08-20T16:37:22.815Z,2.50
2018-08-20T16:39:51.130Z,2.40
2018-08-20T16:42:19.527Z,2.60
2018-08-20T16:44:47.803Z,2.70
2018-08-20T16:47:16.204Z,2.50
2018-08-20T16:49:44.537Z,2.10
2018-08-20T16:52:12.875Z,2.50
2018-08-20T16:54:41.197Z,2.23
2018-08-20T16:57:09.559Z,2.70
2018-08-20T16:59:37.981Z,2.60
2018-08-20T17:02:09.741Z,3.03
2018-08-20T17:04:40.590Z,2.23
2018-08-20T17:07:08.979Z,2.33
2018-08-20T17:09:37.367Z,2.43
2018-08-20T17:12:05.735Z,2.73
2018-08-20T17:14:34.050Z,2.70
2018-08-20T17:17:02.447Z,3.07
2018-08-20T17:19:30.851Z,3.00
2018-08-20T17:21:59.231Z,2.70
2018-08-20T17:24:32.932Z,3.23
2018-08-20T17:27:02.405Z,2.70
2018-08-20T17:29:31.941Z,3.37
2018-08-20T17:32:01.962Z,3.57
2018-08-20T17:34:30.493Z,3.60
2018-08-20T17:36:58.907Z,2.70
2018-08-20T17:39:27.280Z,2.37
2018-08-20T17:41:55.663Z,2.77
2018-08-20T17:44:24.291Z,3.43
2018-08-20T17:46:52.700Z,3.20
2018-08-20T17:49:26.639Z,2.60
2018-08-20T17:51:55.036Z,2.57
2018-08-20T17:54:23.393Z,2.53
2018-08-20T17:56:51.731Z,2.70
2018-08-20T17:59:22.589Z,3.00
2018-08-20T18:01:53.854Z,2.83
2018-08-20T18:04:22.232Z,2.80
2018-08-20T18:06:53.102Z,2.70
2018-08-20T18:09:21.746Z,2.90
2018-08-20T18:11:51.049Z,2.90
2018-08-20T18:14:21.354Z,2.90
2018-08-20T18:16:49.755Z,3.50
2018-08-20T18:19:18.347Z,3.00
2018-08-20T18:21:47.019Z,3.20
2018-08-20T18:24:17.380Z,3.10
2018-08-20T18:26:47.169Z,3.27
2018-08-20T18:29:15.474Z,3.23
2018-08-20T18:31:44.426Z,3.10
2018-08-20T18:34:12.764Z,3.10
2018-08-20T18:36:41.114Z,2.90
2018-08-20T18:39:13.299Z,2.80
2018-08-20T18:42:15.438Z,3.23
2018-08-20T18:44:44.202Z,2.53
2018-08-20T18:47:14.957Z,2.80
2018-08-20T18:49:50.749Z,3.20
2018-08-20T18:52:19.929Z,3.50
2018-08-20T18:54:55.695Z,3.50
2018-08-20T18:57:27.063Z,3.23
2018-08-20T19:00:00.485Z,2.70
2018-08-20T19:02:50.618Z,3.00
2018-08-20T19:05:19.823Z,3.17
2018-08-20T19:07:49.231Z,3.00
2018-08-20T19:10:33.299Z,2.90
2018-08-20T19:13:01.903Z,2.80
2018-08-20T19:15:46.425Z,2.70
2018-08-20T19:18:20.658Z,3.00
2018-08-20T19:20:49.389Z,2.83
2018-08-20T19:23:17.829Z,3.03
2018-08-20T19:25:46.306Z,3.00
2018-08-20T19:28:21.484Z,2.73
2018-08-20T19:30:51.913Z,3.10
2018-08-20T19:33:24.559Z,3.00
2018-08-20T19:36:10.341Z,3.03
2018-08-20T19:38:40.671Z,3.20
2018-08-20T19:41:12.620Z,3.00
2018-08-20T19:43:47.530Z,3.37
2018-08-20T19:49:13.693Z,3.20
2018-08-20T19:54:38.620Z,3.03
2018-08-20T19:57:07.480Z,3.23
2018-08-20T19:59:44.330Z,3.00
2018-08-20T20:02:20.648Z,3.20
2018-08-20T20:04:51.729Z,3.33
2018-08-20T20:07:20.914Z,2.77
2018-08-20T20:09:50.244Z,2.80
2018-08-20T20:12:18.823Z,2.87
2018-08-20T20:14:48.346Z,2.70
2018-08-20T20:17:16.784Z,2.40
2018-08-20T20:19:45.215Z,2.90
2018-08-20T20:22:16.479Z,2.30
2018-08-20T20:24:45.876Z,2.57
2018-08-20T20:27:17.593Z,2.67
2018-08-20T20:29:50.379Z,2.40
2018-08-20T20:32:18.846Z,2.77
2018-08-20T20:34:48.534Z,2.60
2018-08-20T20:37:16.893Z,2.33
2018-08-20T20:39:50.730Z,2.37
2018-08-20T20:42:19.269Z,2.10
2018-08-20T20:44:47.645Z,2.10
2018-08-20T20:47:16.024Z,2.13
2018-08-20T20:49:44.372Z,2.27
2018-08-20T20:52:13.471Z,2.20
2018-08-20T20:54:41.876Z,2.30
2018-08-20T20:57:11.352Z,2.00
2018-08-20T20:59:40.490Z,2.10
2018-08-20T21:02:09.632Z,2.00
2018-08-20T21:04:40.426Z,1.93
2018-08-20T21:09:50.446Z,2.03
2018-08-20T21:12:20.979Z,1.90
2018-08-20T21:14:52.050Z,2.20
2018-08-20T21:17:25.255Z,1.73
2018-08-20T21:19:55.635Z,1.80
2018-08-20T21:22:24.267Z,2.00
2018-08-20T21:24:52.601Z,2.13
2018-08-20T21:27:27.731Z,1.80
2018-08-20T21:29:59.349Z,1.90
2018-08-20T21:32:27.819Z,1.70
2018-08-20T21:34:56.236Z,1.70
2018-08-20T21:37:24.831Z,1.63
2018-08-20T21:39:53.124Z,1.80
2018-08-20T21:42:28.561Z,1.73
2018-08-20T21:44:58.060Z,1.57
2018-08-20T21:47:27.913Z,1.70
2018-08-20T21:49:57.081Z,1.93
2018-08-20T21:52:25.706Z,1.73
2018-08-20T21:54:54.034Z,1.70
2018-08-20T21:57:22.451Z,1.90
2018-08-20T22:00:03.934Z,1.97
2018-08-20T22:02:32.789Z,1.93
2018-08-20T22:05:01.274Z,2.50
2018-08-20T22:07:29.738Z,2.10
2018-08-20T22:09:58.088Z,2.90
2018-08-20T22:12:27.239Z,2.27
2018-08-20T22:14:55.610Z,2.00
2018-08-20T22:17:29.193Z,1.80
2018-08-20T22:19:57.744Z,1.50
2018-08-20T22:22:27.358Z,2.00
2018-08-20T22:24:59.938Z,1.63
2018-08-20T22:27:29.191Z,2.03
2018-08-20T22:30:02.895Z,1.80
2018-08-20T22:32:31.982Z,1.90
2018-08-20T22:35:00.468Z,1.80
2018-08-20T22:37:28.914Z,1.83
2018-08-20T22:40:02.852Z,1.70
2018-08-20T22:42:43.830Z,1.77
2018-08-20T22:45:21.346Z,1.70
2018-08-20T22:47:50.534Z,1.60
2018-08-20T22:50:18.878Z,1.80
2018-08-20T22:52:48.979Z,2.00
2018-08-20T22:55:18.617Z,1.60
2018-08-20T22:58:00.148Z,1.73
2018-08-20T23:00:28.955Z,1.57
2018-08-20T23:02:57.870Z,1.60
2018-08-20T23:05:29.850Z,2.00
2018-08-20T23:08:00.023Z,1.70
2018-08-20T23:10:28.308Z,2.07
2018-08-20T23:12:56.731Z,1.67
2018-08-20T23:15:25.295Z,1.53
2018-08-20T23:17:53.669Z,1.60
2018-08-20T23:20:28.117Z,1.27
2018-08-20T23:22:56.180Z,1.50
2018-08-20T23:25:24.313Z,1.30
2018-08-20T23:27:52.690Z,1.20
2018-08-20T23:30:21.124Z,1.30
2018-08-20T23:32:49.630Z,1.53
2018-08-20T23:35:17.990Z,1.70
2018-08-20T23:37:46.390Z,1.23
2018-08-20T23:40:15.314Z,1.17
2018-08-20T23:42:43.735Z,1.10
2018-08-20T23:45:12.120Z,1.27
2018-08-20T23:47:40.511Z,1.27
2018-08-20T23:50:09.644Z,1.23
2018-08-20T23:52:38.054Z,1.57
2018-08-20T23:55:06.466Z,1.50
2018-08-20T23:57:34.812Z,1.30
